sensor_id;sensor_type;location;lat;lon;timestamp;pressure;altitude;pressure_sealevel;temperature;humidity
76592;BME280;65481;47.600;19.682;2024-01-16T00:02:27;98982.28;;;-0.29;92.71
76592;BME280;65481;47.600;19.682;2024-01-16T00:07:27;98997.88;;;-0.23;92.46
76592;BME280;65481;47.600;19.682;2024-01-16T00:12:28;99011.47;;;-0.21;92.50
76592;BME280;65481;47.600;19.682;2024-01-16T00:17:28;99018.44;;;-0.21;92.65
76592;BME280;65481;47.600;19.682;2024-01-16T00:22:29;99011.63;;;-0.22;92.75
76592;BME280;65481;47.600;19.682;2024-01-16T00:27:29;99026.03;;;-0.20;92.93
76592;BME280;65481;47.600;19.682;2024-01-16T00:32:30;99029.41;;;-0.19;93.20
76592;BME280;65481;47.600;19.682;2024-01-16T00:37:30;99042.81;;;-0.16;93.59
76592;BME280;65481;47.600;19.682;2024-01-16T00:42:31;99047.31;;;-0.24;94.01
76592;BME280;65481;47.600;19.682;2024-01-16T00:47:32;99053.50;;;-0.47;94.52
76592;BME280;65481;47.600;19.682;2024-01-16T00:52:33;99071.78;;;-0.70;95.21
76592;BME280;65481;47.600;19.682;2024-01-16T00:57:33;99073.16;;;-0.74;95.59
76592;BME280;65481;47.600;19.682;2024-01-16T01:02:33;99086.81;;;-0.66;95.70
76592;BME280;65481;47.600;19.682;2024-01-16T01:07:34;99095.44;;;-0.58;95.71
76592;BME280;65481;47.600;19.682;2024-01-16T01:12:34;99093.50;;;-0.71;96.04
76592;BME280;65481;47.600;19.682;2024-01-16T01:17:35;99109.44;;;-0.89;96.65
76592;BME280;65481;47.600;19.682;2024-01-16T01:22:35;99113.44;;;-0.87;96.94
76592;BME280;65481;47.600;19.682;2024-01-16T01:27:38;99115.59;;;-0.75;97.13
76592;BME280;65481;47.600;19.682;2024-01-16T01:32:39;99126.09;;;-0.77;97.89
76592;BME280;65481;47.600;19.682;2024-01-16T01:37:39;99140.66;;;-0.76;98.13
76592;BME280;65481;47.600;19.682;2024-01-16T01:42:41;99143.34;;;-0.69;98.25
76592;BME280;65481;47.600;19.682;2024-01-16T01:47:42;99153.06;;;-0.56;98.19
76592;BME280;65481;47.600;19.682;2024-01-16T01:52:43;99147.78;;;-0.48;97.96
76592;BME280;65481;47.600;19.682;2024-01-16T01:57:44;99145.81;;;-0.46;98.23
76592;BME280;65481;47.600;19.682;2024-01-16T02:02:45;99153.59;;;-0.46;98.44
76592;BME280;65481;47.600;19.682;2024-01-16T02:07:46;99161.38;;;-0.46;98.49
76592;BME280;65481;47.600;19.682;2024-01-16T02:12:46;99167.69;;;-0.49;98.48
76592;BME280;65481;47.600;19.682;2024-01-16T02:17:47;99168.25;;;-0.53;98.35
76592;BME280;65481;47.600;19.682;2024-01-16T02:22:50;99181.28;;;-0.62;98.63
76592;BME280;65481;47.600;19.682;2024-01-16T02:27:54;99191.03;;;-0.64;98.47
76592;BME280;65481;47.600;19.682;2024-01-16T02:32:54;99195.00;;;-0.68;98.54
76592;BME280;65481;47.600;19.682;2024-01-16T02:37:55;99198.91;;;-0.72;98.84
76592;BME280;65481;47.600;19.682;2024-01-16T02:42:56;99203.09;;;-0.86;98.79
76592;BME280;65481;47.600;19.682;2024-01-16T02:47:56;99198.81;;;-0.94;99.23
76592;BME280;65481;47.600;19.682;2024-01-16T02:52:57;99202.56;;;-0.81;99.16
76592;BME280;65481;47.600;19.682;2024-01-16T02:57:57;99202.91;;;-0.69;99.03
76592;BME280;65481;47.600;19.682;2024-01-16T03:02:58;99198.72;;;-0.70;98.87
76592;BME280;65481;47.600;19.682;2024-01-16T03:07:58;99202.50;;;-0.73;99.41
76592;BME280;65481;47.600;19.682;2024-01-16T03:12:59;99206.97;;;-0.67;99.23
76592;BME280;65481;47.600;19.682;2024-01-16T03:18:00;99209.28;;;-0.72;99.03
76592;BME280;65481;47.600;19.682;2024-01-16T03:23:01;99222.22;;;-0.72;98.76
76592;BME280;65481;47.600;19.682;2024-01-16T03:28:01;99227.06;;;-0.69;98.37
76592;BME280;65481;47.600;19.682;2024-01-16T03:33:02;99236.69;;;-0.63;97.83
76592;BME280;65481;47.600;19.682;2024-01-16T03:38:03;99234.19;;;-0.71;97.98
76592;BME280;65481;47.600;19.682;2024-01-16T03:43:04;99236.97;;;-0.87;97.79
76592;BME280;65481;47.600;19.682;2024-01-16T03:48:08;99242.84;;;-0.94;97.79
76592;BME280;65481;47.600;19.682;2024-01-16T03:53:08;99251.50;;;-1.01;97.68
76592;BME280;65481;47.600;19.682;2024-01-16T03:58:09;99259.84;;;-1.29;98.12
76592;BME280;65481;47.600;19.682;2024-01-16T04:03:09;99258.34;;;-1.47;98.53
76592;BME280;65481;47.600;19.682;2024-01-16T04:08:10;99271.31;;;-1.55;98.91
76592;BME280;65481;47.600;19.682;2024-01-16T04:13:12;99279.13;;;-1.63;99.36
76592;BME280;65481;47.600;19.682;2024-01-16T04:18:13;99278.75;;;-1.75;99.40
76592;BME280;65481;47.600;19.682;2024-01-16T04:23:14;99273.78;;;-1.85;99.58
76592;BME280;65481;47.600;19.682;2024-01-16T04:28:14;99275.41;;;-1.92;99.93
76592;BME280;65481;47.600;19.682;2024-01-16T04:33:15;99281.41;;;-1.92;100.00
76592;BME280;65481;47.600;19.682;2024-01-16T04:38:16;99285.25;;;-1.88;100.00
76592;BME280;65481;47.600;19.682;2024-01-16T04:43:17;99284.53;;;-1.73;100.00
76592;BME280;65481;47.600;19.682;2024-01-16T04:48:17;99300.41;;;-1.76;100.00
76592;BME280;65481;47.600;19.682;2024-01-16T04:53:18;99309.13;;;-1.77;100.00
76592;BME280;65481;47.600;19.682;2024-01-16T04:58:18;99306.81;;;-1.72;100.00
76592;BME280;65481;47.600;19.682;2024-01-16T05:03:19;99309.94;;;-1.54;100.00
76592;BME280;65481;47.600;19.682;2024-01-16T05:08:19;99319.63;;;-1.24;99.40
76592;BME280;65481;47.600;19.682;2024-01-16T05:13:20;99327.75;;;-1.04;98.40
76592;BME280;65481;47.600;19.682;2024-01-16T05:18:20;99330.59;;;-0.99;98.03
76592;BME280;65481;47.600;19.682;2024-01-16T05:23:21;99346.88;;;-0.90;97.06
76592;BME280;65481;47.600;19.682;2024-01-16T05:28:22;99353.44;;;-0.79;96.08
76592;BME280;65481;47.600;19.682;2024-01-16T05:33:22;99356.75;;;-0.85;95.56
76592;BME280;65481;47.600;19.682;2024-01-16T05:38:23;99363.69;;;-0.86;94.93
76592;BME280;65481;47.600;19.682;2024-01-16T05:43:23;99366.75;;;-0.82;94.41
76592;BME280;65481;47.600;19.682;2024-01-16T05:48:24;99375.88;;;-0.71;93.75
76592;BME280;65481;47.600;19.682;2024-01-16T05:53:24;99379.19;;;-0.78;93.74
76592;BME280;65481;47.600;19.682;2024-01-16T05:58:25;99380.16;;;-0.79;93.59
76592;BME280;65481;47.600;19.682;2024-01-16T06:03:25;99385.72;;;-0.67;92.68
76592;BME280;65481;47.600;19.682;2024-01-16T06:08:26;99382.78;;;-0.64;92.32
76592;BME280;65481;47.600;19.682;2024-01-16T06:13:26;99395.72;;;-0.64;91.99
76592;BME280;65481;47.600;19.682;2024-01-16T06:18:27;99404.13;;;-0.62;91.92
76592;BME280;65481;47.600;19.682;2024-01-16T06:23:27;99413.03;;;-0.56;91.43
76592;BME280;65481;47.600;19.682;2024-01-16T06:28:28;99414.78;;;-0.56;90.93
76592;BME280;65481;47.600;19.682;2024-01-16T06:33:28;99417.81;;;-0.53;90.78
76592;BME280;65481;47.600;19.682;2024-01-16T06:38:29;99428.47;;;-0.48;89.96
76592;BME280;65481;47.600;19.682;2024-01-16T06:43:30;99434.13;;;-0.44;89.72
76592;BME280;65481;47.600;19.682;2024-01-16T06:48:31;99460.28;;;-0.31;89.22
76592;BME280;65481;47.600;19.682;2024-01-16T06:53:31;99457.34;;;-0.27;88.69
76592;BME280;65481;47.600;19.682;2024-01-16T06:58:32;99461.78;;;-0.21;88.70
76592;BME280;65481;47.600;19.682;2024-01-16T07:03:32;99479.41;;;-0.17;88.36
76592;BME280;65481;47.600;19.682;2024-01-16T07:08:33;99496.69;;;-0.09;87.88
76592;BME280;65481;47.600;19.682;2024-01-16T07:13:34;99507.53;;;0.10;87.38
76592;BME280;65481;47.600;19.682;2024-01-16T07:18:35;99513.06;;;0.45;86.00
76592;BME280;65481;47.600;19.682;2024-01-16T07:23:35;99525.50;;;1.16;83.73
76592;BME280;65481;47.600;19.682;2024-01-16T07:28:36;99542.06;;;1.95;79.78
76592;BME280;65481;47.600;19.682;2024-01-16T07:33:37;99546.56;;;2.72;76.46
76592;BME280;65481;47.600;19.682;2024-01-16T07:38:37;99558.00;;;3.33;72.67
76592;BME280;65481;47.600;19.682;2024-01-16T07:43:38;99568.16;;;3.97;70.18
76592;BME280;65481;47.600;19.682;2024-01-16T07:48:39;99575.94;;;4.70;68.10
76592;BME280;65481;47.600;19.682;2024-01-16T07:53:39;99600.53;;;5.08;63.99
76592;BME280;65481;47.600;19.682;2024-01-16T07:58:40;99592.06;;;5.58;61.48
76592;BME280;65481;47.600;19.682;2024-01-16T08:03:40;99600.25;;;6.08;58.46
76592;BME280;65481;47.600;19.682;2024-01-16T08:08:41;99608.81;;;6.40;55.73
76592;BME280;65481;47.600;19.682;2024-01-16T08:13:42;99622.88;;;6.71;53.62
76592;BME280;65481;47.600;19.682;2024-01-16T08:18:42;99616.91;;;6.82;51.65
76592;BME280;65481;47.600;19.682;2024-01-16T08:23:43;99620.56;;;7.00;50.07
76592;BME280;65481;47.600;19.682;2024-01-16T08:28:43;99626.06;;;7.48;48.73
76592;BME280;65481;47.600;19.682;2024-01-16T08:33:44;99626.06;;;7.48;47.86
76592;BME280;65481;47.600;19.682;2024-01-16T08:38:45;99622.50;;;7.72;46.39
76592;BME280;65481;47.600;19.682;2024-01-16T08:43:45;99634.38;;;7.75;45.92
76592;BME280;65481;47.600;19.682;2024-01-16T08:48:46;99630.69;;;8.07;45.28
76592;BME280;65481;47.600;19.682;2024-01-16T08:53:46;99635.66;;;7.84;45.31
76592;BME280;65481;47.600;19.682;2024-01-16T08:58:47;99629.56;;;8.02;45.12
76592;BME280;65481;47.600;19.682;2024-01-16T09:03:47;99640.72;;;7.98;43.69
76592;BME280;65481;47.600;19.682;2024-01-16T09:08:48;99642.13;;;8.24;43.78
76592;BME280;65481;47.600;19.682;2024-01-16T09:13:49;99650.47;;;8.09;43.32
76592;BME280;65481;47.600;19.682;2024-01-16T09:18:49;99660.94;;;8.40;42.59
76592;BME280;65481;47.600;19.682;2024-01-16T09:23:50;99662.22;;;8.61;42.67
76592;BME280;65481;47.600;19.682;2024-01-16T09:28:51;99670.44;;;8.76;41.40
76592;BME280;65481;47.600;19.682;2024-01-16T09:33:51;99674.09;;;8.52;41.93
76592;BME280;65481;47.600;19.682;2024-01-16T09:38:52;99682.22;;;8.50;41.89
76592;BME280;65481;47.600;19.682;2024-01-16T09:43:52;99682.56;;;8.66;41.74
76592;BME280;65481;47.600;19.682;2024-01-16T09:48:55;99680.16;;;8.88;40.82
76592;BME280;65481;47.600;19.682;2024-01-16T09:53:56;99672.03;;;8.66;41.29
76592;BME280;65481;47.600;19.682;2024-01-16T09:59:05;99679.38;;;8.75;41.15
76592;BME280;65481;47.600;19.682;2024-01-16T10:04:05;99672.50;;;8.86;40.38
76592;BME280;65481;47.600;19.682;2024-01-16T10:09:06;99689.31;;;8.97;39.85
76592;BME280;65481;47.600;19.682;2024-01-16T10:14:07;99692.84;;;8.91;39.98
76592;BME280;65481;47.600;19.682;2024-01-16T10:19:07;99692.63;;;8.81;40.35
76592;BME280;65481;47.600;19.682;2024-01-16T10:24:12;99710.81;;;8.70;39.64
76592;BME280;65481;47.600;19.682;2024-01-16T10:29:13;99710.34;;;8.73;39.50
76592;BME280;65481;47.600;19.682;2024-01-16T10:34:20;99706.34;;;8.59;39.73
76592;BME280;65481;47.600;19.682;2024-01-16T10:39:24;99716.88;;;8.71;39.88
76592;BME280;65481;47.600;19.682;2024-01-16T10:44:24;99720.78;;;7.95;40.57
76592;BME280;65481;47.600;19.682;2024-01-16T10:49:25;99719.22;;;7.76;41.22
76592;BME280;65481;47.600;19.682;2024-01-16T10:54:26;99718.38;;;7.63;40.68
76592;BME280;65481;47.600;19.682;2024-01-16T10:59:46;99726.34;;;7.87;41.68
76592;BME280;65481;47.600;19.682;2024-01-16T11:04:49;99730.91;;;8.22;41.11
76592;BME280;65481;47.600;19.682;2024-01-16T11:09:50;99722.97;;;7.98;41.34
76592;BME280;65481;47.600;19.682;2024-01-16T11:14:51;99732.72;;;7.61;41.12
76592;BME280;65481;47.600;19.682;2024-01-16T11:19:52;99730.75;;;7.75;41.08
76592;BME280;65481;47.600;19.682;2024-01-16T11:25:10;99721.84;;;7.76;41.51
76592;BME280;65481;47.600;19.682;2024-01-16T11:30:11;99722.44;;;7.59;41.46
76592;BME280;65481;47.600;19.682;2024-01-16T11:35:12;99734.75;;;7.77;41.60
76592;BME280;65481;47.600;19.682;2024-01-16T11:50:29;99735.00;;;6.94;42.61
76592;BME280;65481;47.600;19.682;2024-01-16T11:55:35;99737.63;;;6.94;42.94
76592;BME280;65481;47.600;19.682;2024-01-16T12:00:40;99742.63;;;7.21;42.63
76592;BME280;65481;47.600;19.682;2024-01-16T12:05:42;99730.16;;;7.17;42.78
76592;BME280;65481;47.600;19.682;2024-01-16T12:10:46;99738.63;;;7.19;42.96
76592;BME280;65481;47.600;19.682;2024-01-16T12:15:48;99740.47;;;7.18;42.96
76592;BME280;65481;47.600;19.682;2024-01-16T12:20:48;99747.97;;;6.89;43.05
76592;BME280;65481;47.600;19.682;2024-01-16T12:25:52;99754.75;;;6.14;44.85
76592;BME280;65481;47.600;19.682;2024-01-16T12:30:59;99763.09;;;5.84;45.06
76592;BME280;65481;47.600;19.682;2024-01-16T12:36:02;99765.16;;;5.69;45.13
76592;BME280;65481;47.600;19.682;2024-01-16T12:41:09;99764.00;;;5.65;45.22
76592;BME280;65481;47.600;19.682;2024-01-16T12:46:11;99773.72;;;6.10;44.27
76592;BME280;65481;47.600;19.682;2024-01-16T12:51:12;99766.78;;;6.22;44.59
76592;BME280;65481;47.600;19.682;2024-01-16T12:56:12;99757.03;;;5.25;45.18
76592;BME280;65481;47.600;19.682;2024-01-16T13:01:24;99769.72;;;4.67;46.59
76592;BME280;65481;47.600;19.682;2024-01-16T13:06:25;99777.56;;;4.47;47.36
76592;BME280;65481;47.600;19.682;2024-01-16T13:11:26;99778.47;;;4.19;48.52
76592;BME280;65481;47.600;19.682;2024-01-16T13:16:26;99777.81;;;4.04;49.16
76592;BME280;65481;47.600;19.682;2024-01-16T13:21:27;99774.00;;;4.00;49.99
76592;BME280;65481;47.600;19.682;2024-01-16T13:26:27;99776.38;;;3.94;50.46
76592;BME280;65481;47.600;19.682;2024-01-16T13:31:28;99774.88;;;4.20;49.99
76592;BME280;65481;47.600;19.682;2024-01-16T13:36:28;99786.72;;;4.30;50.11
76592;BME280;65481;47.600;19.682;2024-01-16T13:41:29;99791.09;;;4.09;50.69
76592;BME280;65481;47.600;19.682;2024-01-16T13:46:30;99794.25;;;3.98;50.81
76592;BME280;65481;47.600;19.682;2024-01-16T13:51:30;99792.47;;;3.98;51.16
76592;BME280;65481;47.600;19.682;2024-01-16T13:56:30;99791.44;;;3.92;51.17
76592;BME280;65481;47.600;19.682;2024-01-16T14:01:31;99788.00;;;3.85;51.37
76592;BME280;65481;47.600;19.682;2024-01-16T14:06:33;99785.81;;;3.96;51.32
76592;BME280;65481;47.600;19.682;2024-01-16T14:11:34;99786.03;;;3.94;51.80
76592;BME280;65481;47.600;19.682;2024-01-16T14:16:35;99784.97;;;3.82;51.90
76592;BME280;65481;47.600;19.682;2024-01-16T14:21:36;99788.59;;;3.81;51.28
76592;BME280;65481;47.600;19.682;2024-01-16T14:26:37;99793.66;;;3.54;52.04
76592;BME280;65481;47.600;19.682;2024-01-16T14:31:37;99795.31;;;3.33;52.20
76592;BME280;65481;47.600;19.682;2024-01-16T14:36:40;99796.09;;;3.27;52.81
76592;BME280;65481;47.600;19.682;2024-01-16T14:41:41;99795.00;;;3.14;52.41
76592;BME280;65481;47.600;19.682;2024-01-16T14:46:41;99807.13;;;3.00;52.94
76592;BME280;65481;47.600;19.682;2024-01-16T14:51:44;99807.06;;;2.94;53.09
76592;BME280;65481;47.600;19.682;2024-01-16T14:56:44;99815.69;;;2.94;52.58
76592;BME280;65481;47.600;19.682;2024-01-16T15:01:44;99815.50;;;2.74;53.93
76592;BME280;65481;47.600;19.682;2024-01-16T15:06:45;99813.75;;;2.60;54.91
76592;BME280;65481;47.600;19.682;2024-01-16T15:11:47;99805.94;;;2.60;53.83
76592;BME280;65481;47.600;19.682;2024-01-16T15:16:47;99813.06;;;2.51;53.83
76592;BME280;65481;47.600;19.682;2024-01-16T15:21:51;99811.75;;;2.40;53.81
76592;BME280;65481;47.600;19.682;2024-01-16T15:26:57;99818.72;;;2.33;53.99
76592;BME280;65481;47.600;19.682;2024-01-16T15:31:58;99824.38;;;2.21;54.46
76592;BME280;65481;47.600;19.682;2024-01-16T15:36:58;99830.06;;;2.10;54.72
76592;BME280;65481;47.600;19.682;2024-01-16T15:41:59;99839.84;;;2.08;54.36
76592;BME280;65481;47.600;19.682;2024-01-16T15:47:01;99838.06;;;2.08;54.91
76592;BME280;65481;47.600;19.682;2024-01-16T15:52:02;99831.22;;;2.07;55.00
76592;BME280;65481;47.600;19.682;2024-01-16T15:57:03;99833.84;;;1.92;55.04
76592;BME280;65481;47.600;19.682;2024-01-16T16:02:04;99842.72;;;1.68;56.23
76592;BME280;65481;47.600;19.682;2024-01-16T16:07:06;99857.13;;;1.56;57.02
76592;BME280;65481;47.600;19.682;2024-01-16T16:12:07;99854.63;;;1.47;57.15
76592;BME280;65481;47.600;19.682;2024-01-16T16:17:07;99875.19;;;1.57;56.56
76592;BME280;65481;47.600;19.682;2024-01-16T16:22:08;99874.06;;;1.36;57.57
76592;BME280;65481;47.600;19.682;2024-01-16T16:27:29;99893.31;;;1.04;58.70
76592;BME280;65481;47.600;19.682;2024-01-16T16:32:30;99896.09;;;1.02;58.58
76592;BME280;65481;47.600;19.682;2024-01-16T16:37:31;99890.66;;;1.12;58.45
76592;BME280;65481;47.600;19.682;2024-01-16T16:42:32;99904.28;;;1.14;58.07
76592;BME280;65481;47.600;19.682;2024-01-16T16:47:32;99900.97;;;1.20;57.87
76592;BME280;65481;47.600;19.682;2024-01-16T16:52:33;99907.63;;;1.23;57.74
76592;BME280;65481;47.600;19.682;2024-01-16T16:57:33;99914.47;;;1.24;57.97
76592;BME280;65481;47.600;19.682;2024-01-16T17:02:34;99919.94;;;1.06;59.19
76592;BME280;65481;47.600;19.682;2024-01-16T17:07:35;99928.78;;;0.97;59.05
76592;BME280;65481;47.600;19.682;2024-01-16T17:12:36;99930.97;;;0.77;59.85
76592;BME280;65481;47.600;19.682;2024-01-16T17:17:37;99923.28;;;0.60;60.54
76592;BME280;65481;47.600;19.682;2024-01-16T17:22:37;99915.97;;;0.64;60.64
76592;BME280;65481;47.600;19.682;2024-01-16T17:27:38;99929.16;;;0.54;61.10
76592;BME280;65481;47.600;19.682;2024-01-16T17:32:39;99932.00;;;0.27;62.24
76592;BME280;65481;47.600;19.682;2024-01-16T17:37:39;99943.53;;;0.25;62.50
76592;BME280;65481;47.600;19.682;2024-01-16T17:42:40;99939.94;;;0.34;62.36
76592;BME280;65481;47.600;19.682;2024-01-16T17:47:41;99940.28;;;0.23;62.90
76592;BME280;65481;47.600;19.682;2024-01-16T17:52:41;99939.63;;;0.21;63.04
76592;BME280;65481;47.600;19.682;2024-01-16T17:57:42;99948.56;;;0.26;62.52
76592;BME280;65481;47.600;19.682;2024-01-16T18:02:43;99954.09;;;0.23;62.22
76592;BME280;65481;47.600;19.682;2024-01-16T18:07:43;99957.22;;;-0.06;63.30
76592;BME280;65481;47.600;19.682;2024-01-16T18:12:44;99965.34;;;-0.34;64.36
76592;BME280;65481;47.600;19.682;2024-01-16T18:17:45;99971.66;;;-0.53;65.66
76592;BME280;65481;47.600;19.682;2024-01-16T18:22:47;99974.38;;;-0.71;65.76
76592;BME280;65481;47.600;19.682;2024-01-16T18:27:48;99961.75;;;-0.83;66.41
76592;BME280;65481;47.600;19.682;2024-01-16T18:32:49;99964.34;;;-0.83;66.48
76592;BME280;65481;47.600;19.682;2024-01-16T18:37:50;99962.56;;;-0.74;65.93
76592;BME280;65481;47.600;19.682;2024-01-16T18:42:53;99962.06;;;-0.86;66.29
76592;BME280;65481;47.600;19.682;2024-01-16T18:47:53;99972.25;;;-1.01;67.26
76592;BME280;65481;47.600;19.682;2024-01-16T18:52:54;99957.19;;;-0.97;68.35
76592;BME280;65481;47.600;19.682;2024-01-16T18:57:55;99954.28;;;-0.94;68.46
76592;BME280;65481;47.600;19.682;2024-01-16T19:02:59;99948.94;;;-1.01;69.17
76592;BME280;65481;47.600;19.682;2024-01-16T19:08:01;99939.84;;;-0.97;69.32
76592;BME280;65481;47.600;19.682;2024-01-16T19:13:02;99939.53;;;-0.94;69.76
76592;BME280;65481;47.600;19.682;2024-01-16T19:18:04;99942.63;;;-0.98;69.62
76592;BME280;65481;47.600;19.682;2024-01-16T19:23:05;99947.63;;;-0.97;70.02
76592;BME280;65481;47.600;19.682;2024-01-16T19:28:05;99944.38;;;-0.99;69.88
76592;BME280;65481;47.600;19.682;2024-01-16T19:33:07;99947.50;;;-0.95;70.24
76592;BME280;65481;47.600;19.682;2024-01-16T19:38:08;99946.34;;;-0.93;70.84
76592;BME280;65481;47.600;19.682;2024-01-16T19:43:09;99957.38;;;-0.90;71.13
76592;BME280;65481;47.600;19.682;2024-01-16T19:48:09;99947.50;;;-0.95;71.86
76592;BME280;65481;47.600;19.682;2024-01-16T19:53:13;99961.22;;;-0.95;71.75
76592;BME280;65481;47.600;19.682;2024-01-16T19:58:14;99955.88;;;-1.01;72.14
76592;BME280;65481;47.600;19.682;2024-01-16T20:03:15;99953.78;;;-1.06;72.42
76592;BME280;65481;47.600;19.682;2024-01-16T20:08:16;99944.88;;;-1.12;73.45
76592;BME280;65481;47.600;19.682;2024-01-16T20:13:16;99942.06;;;-1.18;74.05
76592;BME280;65481;47.600;19.682;2024-01-16T20:18:17;99953.88;;;-1.24;74.12
76592;BME280;65481;47.600;19.682;2024-01-16T20:23:17;99946.09;;;-1.24;74.49
76592;BME280;65481;47.600;19.682;2024-01-16T20:28:17;99944.47;;;-1.25;74.74
76592;BME280;65481;47.600;19.682;2024-01-16T20:33:18;99939.66;;;-1.28;75.64
76592;BME280;65481;47.600;19.682;2024-01-16T20:38:18;99938.47;;;-1.34;76.21
76592;BME280;65481;47.600;19.682;2024-01-16T20:43:19;99943.50;;;-1.32;76.75
76592;BME280;65481;47.600;19.682;2024-01-16T20:48:19;99956.94;;;-1.29;77.32
76592;BME280;65481;47.600;19.682;2024-01-16T20:53:20;99965.19;;;-1.25;77.71
76592;BME280;65481;47.600;19.682;2024-01-16T20:58:22;99959.09;;;-1.16;78.24
76592;BME280;65481;47.600;19.682;2024-01-16T21:03:23;99964.56;;;-1.19;78.87
76592;BME280;65481;47.600;19.682;2024-01-16T21:08:30;99976.19;;;-1.31;80.42
76592;BME280;65481;47.600;19.682;2024-01-16T21:13:31;99978.72;;;-1.48;81.90
76592;BME280;65481;47.600;19.682;2024-01-16T21:18:31;99983.75;;;-1.73;82.68
76592;BME280;65481;47.600;19.682;2024-01-16T21:23:32;99989.00;;;-1.64;82.77
76592;BME280;65481;47.600;19.682;2024-01-16T21:28:33;99993.84;;;-1.61;82.40
76592;BME280;65481;47.600;19.682;2024-01-16T21:33:34;99987.03;;;-1.62;83.00
76592;BME280;65481;47.600;19.682;2024-01-16T21:38:34;99984.97;;;-1.59;82.97
76592;BME280;65481;47.600;19.682;2024-01-16T21:43:35;99980.41;;;-1.65;84.22
76592;BME280;65481;47.600;19.682;2024-01-16T21:48:36;99962.75;;;-1.70;85.04
76592;BME280;65481;47.600;19.682;2024-01-16T21:53:37;99970.66;;;-1.71;86.19
76592;BME280;65481;47.600;19.682;2024-01-16T21:58:37;99970.44;;;-1.86;87.27
76592;BME280;65481;47.600;19.682;2024-01-16T22:03:38;99964.41;;;-1.95;88.13
76592;BME280;65481;47.600;19.682;2024-01-16T22:08:47;99963.44;;;-1.94;88.29
76592;BME280;65481;47.600;19.682;2024-01-16T22:13:47;99963.16;;;-2.09;89.12
76592;BME280;65481;47.600;19.682;2024-01-16T22:18:47;99955.81;;;-2.22;89.98
76592;BME280;65481;47.600;19.682;2024-01-16T22:23:48;99956.63;;;-2.21;90.77
76592;BME280;65481;47.600;19.682;2024-01-16T22:28:49;99943.75;;;-2.13;90.98
76592;BME280;65481;47.600;19.682;2024-01-16T22:33:50;99938.44;;;-2.11;91.54
76592;BME280;65481;47.600;19.682;2024-01-16T22:38:50;99949.06;;;-2.15;92.24
76592;BME280;65481;47.600;19.682;2024-01-16T22:43:51;99936.63;;;-2.19;92.94
76592;BME280;65481;47.600;19.682;2024-01-16T22:48:52;99938.38;;;-2.20;92.47
76592;BME280;65481;47.600;19.682;2024-01-16T22:53:53;99933.09;;;-2.36;92.80
76592;BME280;65481;47.600;19.682;2024-01-16T22:58:53;99938.06;;;-2.61;94.06
76592;BME280;65481;47.600;19.682;2024-01-16T23:03:54;99932.25;;;-2.81;95.03
76592;BME280;65481;47.600;19.682;2024-01-16T23:08:59;99918.34;;;-2.98;95.27
76592;BME280;65481;47.600;19.682;2024-01-16T23:14:00;99906.34;;;-2.90;95.25
76592;BME280;65481;47.600;19.682;2024-01-16T23:19:00;99912.38;;;-2.81;95.14
76592;BME280;65481;47.600;19.682;2024-01-16T23:24:01;99912.81;;;-2.85;96.31
76592;BME280;65481;47.600;19.682;2024-01-16T23:29:03;99908.97;;;-2.99;98.28
76592;BME280;65481;47.600;19.682;2024-01-16T23:34:03;99894.91;;;-3.05;98.86
76592;BME280;65481;47.600;19.682;2024-01-16T23:39:03;99879.03;;;-2.92;98.30
76592;BME280;65481;47.600;19.682;2024-01-16T23:44:05;99883.63;;;-2.86;98.32
76592;BME280;65481;47.600;19.682;2024-01-16T23:49:08;99876.56;;;-2.84;98.82
76592;BME280;65481;47.600;19.682;2024-01-16T23:54:09;99877.81;;;-2.88;99.11
76592;BME280;65481;47.600;19.682;2024-01-16T23:59:09;99866.50;;;-2.87;98.79
